Time;durP1;ratioP1;P1;durP2;ratioP2;P2;SDS_P1;SDS_P2;PMS_P1;PMS_P2;Temp;Humidity;BMP_temperature;BMP_pressure;BME280_temperature;BME280_humidity;BME280_pressure;Samples;Min_cycle;Max_cycle;Signal;HPM_P1;HPM_P2
2021/12/21 00:00:46;;;;;;;0.00;0.00;;;2.20;90.10;;;;;;4145766;28;20069;-64
2021/12/21 00:03:09;;;;;;;0.00;0.00;;;2.00;90.30;;;;;;4146006;28;20096;-64
2021/12/21 00:05:32;;;;;;;0.00;0.00;;;2.00;90.50;;;;;;4145848;28;20073;-64
2021/12/21 00:07:57;;;;;;;0.00;0.00;;;2.00;90.50;;;;;;4146623;28;20042;-64
2021/12/21 00:10:21;;;;;;;0.00;0.00;;;2.10;90.60;;;;;;4162252;28;20045;-64
2021/12/21 00:15:52;;;;;;;0.00;0.00;;;2.10;90.40;;;;;;4116931;28;20093;-64
2021/12/21 00:18:24;;;;;;;0.00;0.00;;;1.90;90.80;;;;;;4145523;28;20038;-64
2021/12/21 00:25:41;;;;;;;0.00;0.00;;;1.80;91.10;;;;;;4145603;28;20049;-64
2021/12/21 00:28:03;;;;;;;0.00;0.00;;;1.80;91.10;;;;;;4145245;28;20100;-64
2021/12/21 00:30:27;;;;;;;0.00;0.00;;;1.80;91.10;;;;;;4145653;28;20046;-64
2021/12/21 00:32:51;;;;;;;0.00;0.00;;;1.80;91.20;;;;;;4146155;28;20120;-63
2021/12/21 00:35:14;;;;;;;0.00;0.00;;;1.80;91.20;;;;;;4145371;28;20053;-63
2021/12/21 00:37:40;;;;;;;0.00;0.00;;;1.70;91.30;;;;;;4145411;28;20050;-62
2021/12/21 00:40:04;;;;;;;0.00;0.00;;;1.80;91.30;;;;;;4137305;28;20459;-62
2021/12/21 00:42:26;;;;;;;0.00;0.00;;;1.80;91.20;;;;;;4131521;28;20057;-62
2021/12/21 00:44:48;;;;;;;0.00;0.00;;;1.90;91.00;;;;;;4145506;28;20120;-62
2021/12/21 00:47:15;;;;;;;0.00;0.00;;;1.90;91.10;;;;;;4145426;28;20108;-63
2021/12/21 00:49:44;;;;;;;0.00;0.00;;;1.90;91.00;;;;;;4145454;28;20049;-62
2021/12/21 00:52:06;;;;;;;0.00;0.00;;;1.90;91.10;;;;;;4144720;28;20050;-63
2021/12/21 00:54:29;;;;;;;0.00;0.00;;;2.00;91.10;;;;;;4145282;28;20069;-62
2021/12/21 00:56:51;;;;;;;0.00;0.00;;;2.10;90.80;;;;;;4144847;28;20412;-62
2021/12/21 00:59:13;;;;;;;0.00;0.00;;;2.20;90.80;;;;;;4145196;28;20063;-62
2021/12/21 01:01:37;;;;;;;0.00;0.00;;;2.20;90.60;;;;;;4144970;28;20050;-63
2021/12/21 01:04:01;;;;;;;0.00;0.00;;;2.20;90.50;;;;;;4145387;28;20054;-63
2021/12/21 01:06:44;;;;;;;0.00;0.00;;;2.20;90.60;;;;;;4131353;28;20480;-62
2021/12/21 01:09:25;;;;;;;0.00;0.00;;;2.20;90.50;;;;;;4144851;28;20074;-63
2021/12/21 01:11:53;;;;;;;0.00;0.00;;;2.20;90.60;;;;;;4144235;28;20073;-63
2021/12/21 01:17:11;;;;;;;0.00;0.00;;;2.10;90.50;;;;;;4131263;28;20050;-63
2021/12/21 01:19:31;;;;;;;0.00;0.00;;;2.20;90.50;;;;;;4144865;28;20046;-63
2021/12/21 01:34:29;;;;;;;0.00;0.00;;;1.90;91.00;;;;;;4158048;28;20042;-62
2021/12/21 01:37:00;;;;;;;0.00;0.00;;;1.90;91.00;;;;;;4158286;28;20555;-62
2021/12/21 01:41:55;;;;;;;0.00;0.00;;;1.90;91.00;;;;;;4158008;28;20781;-62
2021/12/21 01:49:44;;;;;;;0.00;0.00;;;1.80;91.10;;;;;;4131237;28;20496;-62
2021/12/21 01:52:09;;;;;;;0.00;0.00;;;1.70;91.20;;;;;;4146641;28;20503;-62
2021/12/21 01:54:31;;;;;;;0.00;0.00;;;1.70;91.20;;;;;;4154887;28;20046;-62
2021/12/21 01:56:54;;;;;;;0.00;0.00;;;1.70;91.30;;;;;;4158201;28;20041;-62
2021/12/21 01:59:16;;;;;;;0.00;0.00;;;1.80;91.10;;;;;;4158200;28;20045;-62
2021/12/21 02:01:39;;;;;;;0.00;0.00;;;1.90;90.90;;;;;;4158012;28;20816;-62
2021/12/21 02:04:01;;;;;;;0.00;0.00;;;1.80;91.20;;;;;;4144107;28;20054;-63
2021/12/21 02:06:28;;;;;;;0.00;0.00;;;1.80;91.00;;;;;;4158469;28;20426;-62
2021/12/21 02:08:51;;;;;;;0.00;0.00;;;1.90;90.90;;;;;;4144314;28;20125;-62
2021/12/21 02:11:14;;;;;;;0.00;0.00;;;1.80;90.90;;;;;;4147200;28;20141;-62
2021/12/21 02:13:38;;;;;;;0.00;0.00;;;1.80;90.70;;;;;;4147765;28;20057;-62
2021/12/21 02:16:05;;;;;;;0.00;0.00;;;1.60;90.50;;;;;;4177505;28;20063;-63
2021/12/21 02:18:37;;;;;;;0.00;0.00;;;1.50;90.60;;;;;;4163934;28;20043;-62
2021/12/21 02:21:47;;;;;;;0.00;0.00;;;1.30;90.70;;;;;;4177317;28;20135;-62
2021/12/21 02:23:47;;;;;;;0.00;0.00;;;1.30;90.90;;;;;;4163657;28;20539;-63
2021/12/21 02:31:03;;;;;;;0.00;0.00;;;1.30;91.10;;;;;;4177652;28;20506;-62
2021/12/21 02:33:27;;;;;;;0.00;0.00;;;1.20;91.10;;;;;;4177537;28;20099;-62
2021/12/21 02:35:50;;;;;;;0.00;0.00;;;1.20;91.40;;;;;;4163182;28;20053;-62
2021/12/21 02:38:12;;;;;;;0.00;0.00;;;1.20;91.50;;;;;;4163314;28;20038;-62
2021/12/21 02:40:35;;;;;;;0.00;0.00;;;1.10;91.70;;;;;;4163449;28;20053;-62
2021/12/21 02:42:58;;;;;;;0.00;0.00;;;1.10;91.80;;;;;;4149812;28;20041;-62
2021/12/21 02:45:20;;;;;;;0.00;0.00;;;1.20;91.80;;;;;;4150495;28;20053;-62
2021/12/21 02:47:42;;;;;;;0.00;0.00;;;1.20;91.90;;;;;;4147075;28;20038;-62
2021/12/21 02:50:06;;;;;;;0.00;0.00;;;1.20;91.90;;;;;;4176871;28;20049;-62
2021/12/21 02:52:28;;;;;;;0.00;0.00;;;1.20;91.90;;;;;;4177426;28;20049;-62
2021/12/21 02:54:51;;;;;;;0.00;0.00;;;1.20;91.90;;;;;;4149502;28;20126;-62
2021/12/21 02:57:14;;;;;;;0.00;0.00;;;1.30;91.90;;;;;;4163116;28;20617;-62
2021/12/21 02:59:36;;;;;;;0.00;0.00;;;1.30;91.80;;;;;;4163367;28;20076;-61
2021/12/21 03:01:59;;;;;;;0.00;0.00;;;1.30;91.80;;;;;;4146334;28;20129;-62
2021/12/21 03:04:21;;;;;;;0.00;0.00;;;1.30;91.90;;;;;;4146811;28;20569;-62
2021/12/21 03:07:31;;;;;;;0.00;0.00;;;1.30;91.90;;;;;;4160610;28;20038;-61
2021/12/21 03:09:55;;;;;;;0.00;0.00;;;1.30;91.80;;;;;;4146716;28;20050;-62
2021/12/21 03:14:45;;;;;;;0.00;0.00;;;1.40;91.70;;;;;;4160395;28;20088;-62
2021/12/21 03:17:09;;;;;;;0.00;0.00;;;1.30;91.70;;;;;;4160485;28;20580;-62
2021/12/21 03:19:31;;;;;;;0.00;0.00;;;1.30;91.80;;;;;;4160278;28;20132;-62
2021/12/21 03:21:54;;;;;;;0.00;0.00;;;1.30;91.80;;;;;;4175094;28;20049;-62
2021/12/21 03:24:16;;;;;;;0.00;0.00;;;1.40;92.00;;;;;;4160399;28;20033;-63
2021/12/21 03:26:41;;;;;;;0.00;0.00;;;1.40;91.70;;;;;;4160100;28;20443;-62
2021/12/21 03:29:06;;;;;;;0.00;0.00;;;1.40;91.70;;;;;;4159397;28;20050;-63
2021/12/21 03:31:28;;;;;;;0.00;0.00;;;1.30;91.80;;;;;;4162542;28;20064;-63
2021/12/21 03:33:51;;;;;;;0.00;0.00;;;1.30;91.70;;;;;;4176967;28;20487;-63
2021/12/21 03:36:16;;;;;;;0.00;0.00;;;1.30;91.80;;;;;;4189324;28;20133;-63
2021/12/21 03:38:41;;;;;;;0.00;0.00;;;1.30;91.90;;;;;;4176315;28;20132;-63
2021/12/21 03:41:10;;;;;;;0.00;0.00;;;1.30;91.90;;;;;;4162379;28;20049;-63
2021/12/21 03:43:33;;;;;;;0.00;0.00;;;1.30;91.90;;;;;;4176486;28;20176;-62
2021/12/21 03:46:06;;;;;;;0.00;0.00;;;1.30;91.90;;;;;;4178782;28;20076;-63
2021/12/21 03:48:29;;;;;;;0.00;0.00;;;1.30;92.00;;;;;;4178948;28;20134;-62
2021/12/21 03:50:51;;;;;;;0.00;0.00;;;1.30;91.90;;;;;;4192705;28;20143;-62
2021/12/21 03:53:14;;;;;;;0.00;0.00;;;1.30;91.90;;;;;;4178935;28;20074;-63
2021/12/21 03:55:36;;;;;;;0.00;0.00;;;1.40;91.80;;;;;;4178845;28;20454;-61
2021/12/21 03:57:58;;;;;;;0.00;0.00;;;1.50;91.70;;;;;;4164537;28;20092;-62
2021/12/21 04:00:27;;;;;;;0.00;0.00;;;1.70;91.60;;;;;;4179071;28;20099;-62
2021/12/21 04:02:51;;;;;;;0.00;0.00;;;1.70;91.30;;;;;;4178559;28;20045;-61
2021/12/21 04:05:14;;;;;;;0.00;0.00;;;1.60;91.40;;;;;;4178709;28;20064;-64
2021/12/21 04:07:36;;;;;;;0.00;0.00;;;1.40;91.50;;;;;;4178715;28;20453;-64
2021/12/21 04:09:59;;;;;;;0.00;0.00;;;1.30;91.70;;;;;;4192110;28;20127;-64
2021/12/21 04:12:21;;;;;;;0.00;0.00;;;1.40;91.80;;;;;;4178470;28;20084;-64
2021/12/21 04:14:44;;;;;;;0.00;0.00;;;1.30;91.80;;;;;;4178696;28;20107;-64
2021/12/21 04:17:06;;;;;;;0.00;0.00;;;1.30;91.80;;;;;;4164957;28;20056;-62
2021/12/21 04:19:29;;;;;;;0.00;0.00;;;1.20;91.80;;;;;;4178484;28;20044;-62
2021/12/21 04:21:53;;;;;;;0.00;0.00;;;1.20;91.90;;;;;;4176997;28;20442;-64
2021/12/21 04:24:15;;;;;;;0.00;0.00;;;1.10;92.00;;;;;;4166067;28;20561;-64
2021/12/21 04:26:38;;;;;;;0.00;0.00;;;1.10;92.00;;;;;;4171229;28;20135;-64
2021/12/21 04:29:00;;;;;;;0.00;0.00;;;1.10;92.10;;;;;;4148217;28;20057;-62
2021/12/21 04:31:24;;;;;;;0.00;0.00;;;1.10;92.10;;;;;;4175380;28;20044;-64
2021/12/21 04:33:46;;;;;;;0.00;0.00;;;1.10;92.00;;;;;;4161600;28;20089;-62
2021/12/21 04:36:11;;;;;;;0.00;0.00;;;1.10;91.90;;;;;;4160993;28;20041;-62
2021/12/21 04:38:37;;;;;;;0.00;0.00;;;1.10;92.00;;;;;;4168196;28;20053;-62
2021/12/21 04:41:08;;;;;;;0.00;0.00;;;1.10;92.00;;;;;;4177855;28;20053;-62
2021/12/21 04:43:31;;;;;;;0.00;0.00;;;1.20;91.90;;;;;;4178281;28;20049;-62
2021/12/21 04:45:53;;;;;;;0.00;0.00;;;1.20;91.80;;;;;;4176585;28;20053;-62
2021/12/21 04:48:16;;;;;;;0.00;0.00;;;1.30;91.80;;;;;;4175485;28;20049;-62
2021/12/21 04:50:40;;;;;;;0.00;0.00;;;1.30;91.70;;;;;;4161217;28;20064;-63
2021/12/21 04:53:03;;;;;;;0.00;0.00;;;1.40;91.70;;;;;;4161688;28;20141;-63
2021/12/21 04:55:25;;;;;;;0.00;0.00;;;1.60;91.60;;;;;;4175263;28;20060;-63
2021/12/21 04:57:48;;;;;;;0.00;0.00;;;1.70;91.30;;;;;;4177443;28;20057;-63
2021/12/21 05:00:12;;;;;;;0.00;0.00;;;1.80;91.40;;;;;;4161587;28;20045;-63
2021/12/21 05:02:35;;;;;;;0.00;0.00;;;1.70;90.90;;;;;;4161622;28;20045;-63
2021/12/21 05:04:57;;;;;;;0.00;0.00;;;1.60;91.10;;;;;;4161231;28;20414;-63
2021/12/21 05:07:23;;;;;;;0.00;0.00;;;1.50;91.20;;;;;;4174259;28;20053;-63
2021/12/21 05:09:54;;;;;;;0.00;0.00;;;1.40;91.30;;;;;;4161192;28;20057;-63
2021/12/21 05:12:17;;;;;;;0.00;0.00;;;1.30;91.50;;;;;;4160641;28;20045;-63
2021/12/21 05:14:39;;;;;;;0.00;0.00;;;1.30;91.50;;;;;;4174940;28;20045;-63
2021/12/21 05:17:02;;;;;;;0.00;0.00;;;1.40;91.50;;;;;;4161302;28;20049;-64
2021/12/21 05:19:25;;;;;;;0.00;0.00;;;1.50;91.30;;;;;;4161290;28;20137;-63
2021/12/21 05:21:48;;;;;;;0.00;0.00;;;1.60;91.20;;;;;;4190646;28;20053;-63
2021/12/21 05:24:10;;;;;;;0.00;0.00;;;1.80;91.00;;;;;;4161005;28;20053;-63
2021/12/21 05:26:32;;;;;;;0.00;0.00;;;2.00;90.80;;;;;;4167694;28;20055;-63
2021/12/21 05:28:55;;;;;;;0.00;0.00;;;2.10;90.50;;;;;;4168084;28;20041;-63
2021/12/21 05:31:17;;;;;;;0.00;0.00;;;2.10;90.20;;;;;;4174619;28;20049;-63
2021/12/21 05:33:40;;;;;;;0.00;0.00;;;1.90;90.30;;;;;;4160977;28;20045;-63
2021/12/21 05:36:03;;;;;;;0.00;0.00;;;1.90;90.30;;;;;;4160638;28;20111;-63
2021/12/21 05:38:31;;;;;;;0.00;0.00;;;1.90;90.40;;;;;;4174669;28;20060;-63
2021/12/21 05:40:54;;;;;;;0.00;0.00;;;1.90;90.40;;;;;;4160802;28;20248;-63
2021/12/21 05:43:17;;;;;;;0.00;0.00;;;2.00;90.40;;;;;;4175785;28;20044;-63
2021/12/21 05:45:40;;;;;;;0.00;0.00;;;1.90;90.40;;;;;;4166242;28;20808;-63
2021/12/21 05:48:03;;;;;;;0.00;0.00;;;1.80;90.70;;;;;;4182547;28;20049;-64
2021/12/21 05:50:26;;;;;;;0.00;0.00;;;1.80;90.90;;;;;;4182979;28;20053;-63
2021/12/21 05:52:49;;;;;;;0.00;0.00;;;1.80;90.70;;;;;;4196952;28;20555;-63
2021/12/21 05:55:13;;;;;;;0.00;0.00;;;1.70;90.30;;;;;;4182943;28;20041;-63
2021/12/21 05:57:36;;;;;;;0.00;0.00;;;1.80;90.40;;;;;;4182720;28;20087;-63
2021/12/21 06:00:00;;;;;;;0.00;0.00;;;1.80;90.60;;;;;;4182437;28;20053;-63
2021/12/21 06:02:25;;;;;;;0.00;0.00;;;1.80;90.80;;;;;;4182654;28;20087;-63
2021/12/21 06:04:48;;;;;;;0.00;0.00;;;1.90;90.60;;;;;;4182695;28;20077;-63
2021/12/21 06:07:11;;;;;;;0.00;0.00;;;2.00;90.50;;;;;;4182830;28;20087;-63
2021/12/21 06:09:33;;;;;;;0.00;0.00;;;2.00;90.20;;;;;;4182501;28;20127;-63
2021/12/21 06:14:58;;;;;;;0.00;0.00;;;2.00;89.90;;;;;;4182823;28;20521;-63
2021/12/21 06:27:36;;;;;;;0.00;0.00;;;1.90;89.10;;;;;;4181315;28;20091;-62
2021/12/21 06:29:59;;;;;;;0.00;0.00;;;1.90;88.80;;;;;;4180712;28;20393;-63
2021/12/21 06:32:21;;;;;;;0.00;0.00;;;2.00;88.50;;;;;;4179855;28;20045;-63
2021/12/21 06:34:44;;;;;;;0.00;0.00;;;2.00;88.00;;;;;;4179974;28;20073;-63
2021/12/21 06:37:07;;;;;;;0.00;0.00;;;2.00;87.90;;;;;;4179522;28;20148;-63
2021/12/21 06:39:32;;;;;;;0.00;0.00;;;1.90;87.30;;;;;;4179529;28;20044;-63
2021/12/21 06:41:56;;;;;;;0.00;0.00;;;1.80;87.50;;;;;;4179302;28;20414;-62
2021/12/21 06:44:19;;;;;;;0.00;0.00;;;1.70;87.20;;;;;;4166185;28;20041;-63
2021/12/21 06:47:04;;;;;;;0.00;0.00;;;1.60;87.40;;;;;;4165938;28;20091;-63
2021/12/21 06:52:12;;;;;;;0.00;0.00;;;1.50;86.70;;;;;;4165335;28;20045;-63
2021/12/21 06:54:35;;;;;;;0.00;0.00;;;1.50;87.20;;;;;;4179596;28;20076;-64
2021/12/21 06:56:58;;;;;;;0.00;0.00;;;1.50;87.50;;;;;;4163280;28;20056;-64
2021/12/21 06:59:20;;;;;;;0.00;0.00;;;1.70;87.30;;;;;;4163271;28;20144;-64
2021/12/21 07:01:42;;;;;;;0.00;0.00;;;1.80;87.10;;;;;;4163057;28;20046;-63
2021/12/21 07:04:10;;;;;;;0.00;0.00;;;1.90;86.90;;;;;;4176808;28;20063;-64
2021/12/21 07:06:36;;;;;;;0.00;0.00;;;1.90;86.60;;;;;;4177135;28;20041;-62
2021/12/21 07:11:30;;;;;;;0.00;0.00;;;1.80;86.30;;;;;;4176604;28;20051;-63
2021/12/21 07:19:16;;;;;;;0.00;0.00;;;1.70;86.60;;;;;;4163133;28;20426;-63
2021/12/21 07:21:40;;;;;;;0.00;0.00;;;1.70;86.50;;;;;;4162334;28;20050;-63
2021/12/21 07:24:03;;;;;;;0.00;0.00;;;1.80;86.60;;;;;;4176876;28;20073;-62
2021/12/21 07:26:26;;;;;;;0.00;0.00;;;1.90;86.70;;;;;;4162777;28;20049;-63
2021/12/21 07:28:48;;;;;;;0.00;0.00;;;2.00;86.60;;;;;;4176907;28;20449;-63
2021/12/21 07:31:11;;;;;;;0.00;0.00;;;1.90;86.50;;;;;;4162596;28;20502;-63
2021/12/21 07:33:34;;;;;;;0.00;0.00;;;1.90;86.30;;;;;;4177600;28;20056;-62
2021/12/21 07:35:57;;;;;;;0.00;0.00;;;1.70;86.10;;;;;;4176917;28;20059;-63
2021/12/21 07:38:26;;;;;;;0.00;0.00;;;1.70;86.80;;;;;;4175929;28;20044;-62
2021/12/21 07:40:48;;;;;;;0.00;0.00;;;1.70;86.50;;;;;;4176303;28;20094;-64
2021/12/21 07:43:11;;;;;;;0.00;0.00;;;1.70;86.60;;;;;;4162633;28;20049;-63
2021/12/21 07:45:33;;;;;;;0.00;0.00;;;1.50;86.60;;;;;;4162522;28;20414;-64
2021/12/21 07:47:56;;;;;;;0.00;0.00;;;1.40;87.00;;;;;;4148177;28;20093;-63
2021/12/21 07:50:20;;;;;;;0.00;0.00;;;1.40;87.00;;;;;;4176322;28;20037;-63
2021/12/21 07:52:43;;;;;;;0.00;0.00;;;1.40;87.10;;;;;;4162323;28;20566;-62
2021/12/21 07:55:06;;;;;;;0.00;0.00;;;1.50;86.90;;;;;;4162407;28;20088;-62
2021/12/21 07:57:28;;;;;;;0.00;0.00;;;1.40;86.70;;;;;;4162308;28;20104;-62
2021/12/21 07:59:51;;;;;;;0.00;0.00;;;1.50;87.00;;;;;;4175886;28;20111;-63
2021/12/21 08:02:14;;;;;;;0.00;0.00;;;1.60;86.60;;;;;;4162033;28;20365;-63
2021/12/21 08:04:38;;;;;;;0.00;0.00;;;1.60;86.70;;;;;;4148583;28;20052;-62
2021/12/21 08:07:08;;;;;;;0.00;0.00;;;1.60;86.30;;;;;;4161101;28;20057;-63
2021/12/21 08:09:38;;;;;;;0.00;0.00;;;1.70;86.40;;;;;;4162056;28;20092;-62
2021/12/21 08:12:15;;;;;;;0.00;0.00;;;1.70;86.20;;;;;;4175950;28;20056;-67
2021/12/21 08:14:37;;;;;;;0.00;0.00;;;1.70;86.10;;;;;;4162262;28;20046;-64
2021/12/21 08:17:00;;;;;;;0.00;0.00;;;1.70;86.80;;;;;;4161770;28;20096;-65
2021/12/21 08:19:22;;;;;;;0.00;0.00;;;1.90;88.00;;;;;;4157911;28;20052;-66
2021/12/21 08:21:45;;;;;;;0.00;0.00;;;2.10;86.90;;;;;;4177401;28;20059;-65
2021/12/21 08:24:07;;;;;;;0.00;0.00;;;2.10;85.70;;;;;;4174878;28;20100;-64
2021/12/21 08:26:30;;;;;;;0.00;0.00;;;2.10;85.90;;;;;;4175835;28;20052;-66
2021/12/21 08:28:52;;;;;;;0.00;0.00;;;2.10;85.90;;;;;;4148454;28;20050;-67
2021/12/21 08:31:16;;;;;;;0.00;0.00;;;2.00;86.10;;;;;;4161254;28;20079;-61
2021/12/21 08:33:40;;;;;;;0.00;0.00;;;2.00;85.90;;;;;;4148321;28;20041;-67
2021/12/21 08:36:07;;;;;;;0.00;0.00;;;1.90;85.80;;;;;;4161324;28;20499;-66
2021/12/21 08:38:32;;;;;;;0.00;0.00;;;1.90;85.90;;;;;;4175286;28;20044;-63
2021/12/21 08:40:57;;;;;;;0.00;0.00;;;1.90;86.30;;;;;;4161046;28;20108;-66
2021/12/21 08:43:24;;;;;;;0.00;0.00;;;1.90;86.10;;;;;;4174321;28;20052;-67
2021/12/21 08:45:48;;;;;;;0.00;0.00;;;1.90;86.30;;;;;;4177663;28;20048;-65
2021/12/21 08:48:12;;;;;;;0.00;0.00;;;1.90;86.10;;;;;;4161671;28;20057;-62
2021/12/21 08:50:35;;;;;;;0.00;0.00;;;2.00;86.10;;;;;;4161014;28;20049;-62
2021/12/21 08:52:58;;;;;;;0.00;0.00;;;2.00;85.50;;;;;;4161240;28;20061;-62
2021/12/21 08:55:21;;;;;;;0.00;0.00;;;2.10;85.20;;;;;;4174566;28;20076;-67
2021/12/21 08:57:43;;;;;;;0.00;0.00;;;2.00;84.30;;;;;;4177808;28;20048;-66
2021/12/21 09:00:07;;;;;;;0.00;0.00;;;2.00;84.70;;;;;;4160049;28;20053;-67
2021/12/21 09:02:33;;;;;;;0.00;0.00;;;1.90;85.20;;;;;;4161226;28;20109;-68
2021/12/21 09:04:56;;;;;;;0.00;0.00;;;1.90;85.00;;;;;;4161323;28;20548;-68
2021/12/21 09:07:18;;;;;;;0.00;0.00;;;1.90;85.10;;;;;;4161234;28;20049;-66
2021/12/21 09:09:40;;;;;;;0.00;0.00;;;1.90;84.90;;;;;;4160113;28;20053;-68
2021/12/21 09:12:04;;;;;;;0.00;0.00;;;1.80;84.80;;;;;;4190723;28;20048;-68
2021/12/21 09:14:31;;;;;;;0.00;0.00;;;1.80;85.00;;;;;;4177419;28;20056;-66
2021/12/21 09:16:54;;;;;;;0.00;0.00;;;1.80;84.80;;;;;;4177519;28;20051;-64
2021/12/21 09:19:17;;;;;;;0.00;0.00;;;1.60;84.50;;;;;;4176981;28;20063;-67
2021/12/21 09:21:53;;;;;;;0.00;0.00;;;1.70;84.90;;;;;;4162575;28;20511;-63
2021/12/21 09:24:16;;;;;;;0.00;0.00;;;1.70;84.50;;;;;;4164109;28;20066;-67
2021/12/21 09:26:38;;;;;;;0.00;0.00;;;1.60;84.60;;;;;;4177362;28;20044;-67
2021/12/21 09:29:01;;;;;;;0.00;0.00;;;1.50;85.10;;;;;;4177347;28;20045;-68
2021/12/21 09:31:24;;;;;;;0.00;0.00;;;1.80;85.20;;;;;;4177131;28;20072;-68
2021/12/21 09:33:46;;;;;;;0.00;0.00;;;1.80;84.90;;;;;;4177124;28;20522;-68
2021/12/21 09:36:09;;;;;;;0.00;0.00;;;1.80;84.90;;;;;;4177234;28;20130;-67
2021/12/21 09:38:32;;;;;;;0.00;0.00;;;1.70;84.70;;;;;;4177254;28;20135;-68
2021/12/21 09:40:55;;;;;;;0.00;0.00;;;1.80;85.00;;;;;;4176858;28;20045;-64
2021/12/21 09:43:17;;;;;;;0.00;0.00;;;1.80;84.70;;;;;;4177284;28;20045;-61
2021/12/21 09:45:40;;;;;;;0.00;0.00;;;1.80;84.30;;;;;;4191320;28;20087;-61
2021/12/21 09:48:03;;;;;;;0.00;0.00;;;1.80;84.30;;;;;;4176794;28;20080;-63
2021/12/21 09:50:26;;;;;;;0.00;0.00;;;1.90;83.90;;;;;;4177075;28;20088;-63
2021/12/21 09:52:49;;;;;;;0.00;0.00;;;2.00;84.00;;;;;;4177356;28;20395;-62
2021/12/21 09:55:13;;;;;;;0.00;0.00;;;2.30;83.40;;;;;;4177154;28;20049;-62
2021/12/21 09:57:36;;;;;;;0.00;0.00;;;2.50;82.70;;;;;;4177150;28;20063;-62
2021/12/21 09:59:59;;;;;;;0.00;0.00;;;2.40;81.90;;;;;;4190664;28;20049;-63
2021/12/21 10:02:26;;;;;;;0.00;0.00;;;2.30;82.30;;;;;;4177098;28;20183;-63
2021/12/21 10:04:52;;;;;;;0.00;0.00;;;2.30;82.40;;;;;;4163752;28;20158;-63
2021/12/21 10:07:15;;;;;;;0.00;0.00;;;2.40;82.30;;;;;;4177156;28;20075;-64
2021/12/21 10:09:43;;;;;;;0.00;0.00;;;2.30;81.90;;;;;;4176809;28;20049;-65
2021/12/21 10:12:06;;;;;;;0.00;0.00;;;2.50;82.30;;;;;;4176330;28;20037;-62
2021/12/21 10:14:28;;;;;;;0.00;0.00;;;2.60;81.90;;;;;;4176921;28;20098;-63
2021/12/21 10:17:11;;;;;;;0.00;0.00;;;2.80;81.20;;;;;;4177029;28;20049;-63
2021/12/21 10:19:35;;;;;;;0.00;0.00;;;2.50;80.80;;;;;;4175509;28;20081;-63
2021/12/21 10:22:08;;;;;;;0.00;0.00;;;2.50;81.30;;;;;;4176080;28;20045;-62
2021/12/21 10:24:30;;;;;;;0.00;0.00;;;2.60;81.30;;;;;;4176969;28;20045;-62
2021/12/21 10:27:05;;;;;;;0.00;0.00;;;2.70;81.00;;;;;;4177113;28;20057;-63
2021/12/21 10:29:28;;;;;;;0.00;0.00;;;2.80;80.70;;;;;;4176788;28;20108;-62
2021/12/21 10:31:50;;;;;;;0.00;0.00;;;2.90;80.50;;;;;;4179016;28;20128;-63
2021/12/21 10:34:18;;;;;;;0.00;0.00;;;2.90;80.20;;;;;;4179935;28;20053;-65
2021/12/21 10:36:52;;;;;;;0.00;0.00;;;2.80;80.20;;;;;;4179835;28;20118;-64
2021/12/21 10:39:28;;;;;;;0.00;0.00;;;2.80;80.10;;;;;;4164471;28;20069;-63
2021/12/21 10:41:52;;;;;;;0.00;0.00;;;2.90;80.40;;;;;;4162596;28;20145;-63
2021/12/21 10:44:18;;;;;;;0.00;0.00;;;2.70;80.40;;;;;;4163281;28;20072;-65
2021/12/21 10:46:46;;;;;;;0.00;0.00;;;2.50;80.60;;;;;;4163160;28;20049;-63
2021/12/21 10:49:28;;;;;;;0.00;0.00;;;2.20;81.50;;;;;;4163003;28;20041;-62
2021/12/21 10:51:53;;;;;;;0.00;0.00;;;2.20;81.70;;;;;;4178539;28;20068;-63
2021/12/21 10:54:29;;;;;;;0.00;0.00;;;2.20;82.00;;;;;;4163230;28;20037;-63
2021/12/21 10:56:59;;;;;;;0.00;0.00;;;2.10;82.10;;;;;;4163269;28;20057;-64
2021/12/21 10:59:35;;;;;;;0.00;0.00;;;2.10;82.20;;;;;;4162892;28;20045;-64
2021/12/21 11:02:14;;;;;;;0.00;0.00;;;2.10;82.30;;;;;;4162279;28;20473;-63
2021/12/21 11:04:47;;;;;;;0.00;0.00;;;1.90;82.40;;;;;;4162931;28;20053;-62
2021/12/21 11:07:31;;;;;;;0.00;0.00;;;2.00;82.60;;;;;;4163075;28;20045;-63
2021/12/21 11:10:11;;;;;;;0.00;0.00;;;2.00;81.50;;;;;;4162418;28;20061;-66
2021/12/21 11:12:58;;;;;;;0.00;0.00;;;1.90;81.90;;;;;;4172139;28;20055;-64
2021/12/21 11:15:29;;;;;;;0.00;0.00;;;2.20;82.00;;;;;;4179429;28;20114;-63
2021/12/21 11:17:52;;;;;;;;;;;2.50;81.30;;;;;;4179399;28;20048;-63
2021/12/21 11:20:16;;;;;;;0.00;0.00;;;2.70;80.70;;;;;;4179310;28;19924;-62
2021/12/21 11:22:41;;;;;;;0.00;0.00;;;2.80;80.20;;;;;;4179168;28;20045;-63
2021/12/21 11:25:05;;;;;;;0.00;0.00;;;2.70;79.90;;;;;;4165562;28;20063;-62
2021/12/21 11:27:29;;;;;;;0.00;0.00;;;2.70;79.90;;;;;;4179218;28;20049;-67
2021/12/21 11:29:56;;;;;;;0.00;0.00;;;2.50;80.00;;;;;;4162286;28;20586;-63
2021/12/21 11:32:20;;;;;;;0.00;0.00;;;2.40;80.40;;;;;;4176224;28;20449;-67
2021/12/21 11:37:20;;;;;;;0.00;0.00;;;2.50;80.50;;;;;;4162769;28;20041;-63
2021/12/21 11:37:29;;;;;;;0.00;0.00;;;2.70;80.30;;;;;;4162307;28;20045;-72
2021/12/21 11:39:57;;;;;;;0.00;0.00;;;2.90;80.00;;;;;;4178413;28;20044;-64
2021/12/21 11:42:35;;;;;;;0.00;0.00;;;3.10;79.50;;;;;;4173830;28;20072;-63
2021/12/21 11:45:13;;;;;;;0.00;0.00;;;3.30;78.60;;;;;;4172394;28;20045;-61
2021/12/21 11:47:41;;;;;;;0.00;0.00;;;3.20;77.90;;;;;;4163971;28;20132;-61
2021/12/21 11:50:07;;;;;;;0.00;0.00;;;2.80;78.40;;;;;;4175885;28;20048;-61
2021/12/21 11:52:31;;;;;;;0.00;0.00;;;2.70;79.20;;;;;;4168338;28;20451;-61
2021/12/21 11:54:55;;;;;;;0.00;0.00;;;2.90;79.00;;;;;;4169631;28;20046;-63
2021/12/21 11:57:20;;;;;;;0.00;0.00;;;2.90;78.40;;;;;;4162140;28;20489;-62
2021/12/21 11:59:42;;;;;;;0.00;0.00;;;2.90;78.40;;;;;;4162094;28;20042;-62
2021/12/21 12:02:07;;;;;;;0.00;0.00;;;2.90;78.40;;;;;;4177905;28;20057;-62
2021/12/21 12:04:29;;;;;;;0.00;0.00;;;2.90;78.30;;;;;;4172558;28;20132;-62
2021/12/21 12:06:54;;;;;;;0.00;0.00;;;2.70;78.80;;;;;;4175933;28;20103;-63
2021/12/21 12:09:24;;;;;;;0.00;0.00;;;2.70;78.70;;;;;;4161699;28;20574;-63
2021/12/21 12:11:47;;;;;;;0.00;0.00;;;2.80;78.50;;;;;;4177905;28;20067;-63
2021/12/21 12:14:13;;;;;;;0.00;0.00;;;2.70;78.50;;;;;;4165028;28;20095;-62
2021/12/21 12:16:40;;;;;;;0.00;0.00;;;2.70;78.90;;;;;;4178409;28;20136;-62
2021/12/21 12:19:10;;;;;;;0.00;0.00;;;2.60;78.90;;;;;;4164833;28;20045;-62
2021/12/21 12:21:32;;;;;;;0.00;0.00;;;2.70;79.10;;;;;;4178407;28;20069;-62
2021/12/21 12:24:01;;;;;;;0.00;0.00;;;3.00;78.80;;;;;;4178003;28;20059;-61
2021/12/21 12:26:33;;;;;;;0.00;0.00;;;3.10;78.10;;;;;;4178381;28;20045;-62
2021/12/21 12:28:57;;;;;;;0.00;0.00;;;3.20;77.70;;;;;;4178585;28;20075;-61
2021/12/21 12:31:35;;;;;;;0.00;0.00;;;2.80;77.70;;;;;;4178093;28;20054;-61
2021/12/21 12:33:58;;;;;;;0.00;0.00;;;2.70;78.60;;;;;;4177511;28;20106;-61
2021/12/21 12:36:38;;;;;;;0.00;0.00;;;2.70;78.40;;;;;;4178329;28;20755;-61
2021/12/21 12:39:02;;;;;;;0.00;0.00;;;2.80;78.60;;;;;;4178095;28;20061;-62
2021/12/21 12:41:28;;;;;;;0.00;0.00;;;3.00;78.10;;;;;;4177780;28;20070;-62
2021/12/21 12:43:51;;;;;;;0.00;0.00;;;3.20;77.90;;;;;;4177671;28;20094;-62
2021/12/21 12:46:24;;;;;;;0.00;0.00;;;3.20;77.20;;;;;;4178248;28;20383;-62
2021/12/21 12:48:48;;;;;;;0.00;0.00;;;3.10;77.70;;;;;;4177871;28;20672;-62
2021/12/21 12:51:27;;;;;;;0.00;0.00;;;3.10;77.20;;;;;;4177701;28;20057;-62
2021/12/21 12:53:49;;;;;;;0.00;0.00;;;3.10;77.20;;;;;;4176230;28;20054;-62
2021/12/21 12:56:14;;;;;;;0.00;0.00;;;3.10;77.40;;;;;;4165373;28;20447;-61
2021/12/21 12:59:05;;;;;;;0.00;0.00;;;3.10;77.60;;;;;;4170989;28;20053;-61
2021/12/21 13:01:38;;;;;;;0.00;0.00;;;3.20;77.50;;;;;;4161154;28;20056;-63
2021/12/21 13:04:08;;;;;;;0.00;0.00;;;3.40;77.20;;;;;;4147021;28;20056;-63
2021/12/21 13:06:34;;;;;;;0.00;0.00;;;3.50;77.00;;;;;;4148111;28;20572;-62
2021/12/21 13:08:57;;;;;;;0.00;0.00;;;3.60;76.60;;;;;;4161139;28;20041;-63
2021/12/21 13:11:25;;;;;;;0.00;0.00;;;3.60;76.70;;;;;;4160883;28;20057;-63
2021/12/21 13:13:49;;;;;;;0.00;0.00;;;3.60;76.60;;;;;;4160743;28;20053;-63
2021/12/21 13:16:13;;;;;;;0.00;0.00;;;3.30;76.40;;;;;;4161324;28;20120;-62
2021/12/21 13:18:52;;;;;;;0.00;0.00;;;3.30;76.50;;;;;;4160915;28;20164;-63
2021/12/21 13:21:19;;;;;;;0.00;0.00;;;3.10;76.90;;;;;;4147202;28;20507;-63
2021/12/21 13:23:41;;;;;;;0.00;0.00;;;3.00;77.20;;;;;;4176731;28;20132;-63
2021/12/21 13:26:07;;;;;;;0.00;0.00;;;3.00;77.30;;;;;;4160275;28;20043;-64
2021/12/21 13:28:43;;;;;;;0.00;0.00;;;3.00;77.40;;;;;;4161144;28;20049;-63
2021/12/21 13:31:06;;;;;;;0.00;0.00;;;3.20;77.20;;;;;;4171728;28;20063;-64
2021/12/21 13:33:29;;;;;;;0.00;0.00;;;3.30;76.70;;;;;;4163506;28;20045;-63
2021/12/21 13:35:54;;;;;;;0.00;0.00;;;3.20;77.10;;;;;;4175892;28;20052;-62
2021/12/21 13:38:19;;;;;;;0.00;0.00;;;3.00;77.20;;;;;;4150118;28;20469;-62
2021/12/21 13:40:41;;;;;;;0.00;0.00;;;2.70;77.50;;;;;;4168138;28;20047;-62
2021/12/21 13:43:13;;;;;;;0.00;0.00;;;2.60;78.00;;;;;;4177278;28;20449;-62
2021/12/21 13:45:36;;;;;;;0.00;0.00;;;2.60;78.10;;;;;;4177156;28;20053;-62
2021/12/21 13:47:58;;;;;;;0.00;0.00;;;2.70;78.50;;;;;;4161405;28;20057;-62
2021/12/21 13:50:26;;;;;;;0.00;0.00;;;2.80;78.50;;;;;;4160585;28;20121;-62